Time;durP1;ratioP1;P1;durP2;ratioP2;P2;SDS_P1;SDS_P2;PMS_P1;PMS_P2;Temp;Humidity;BMP_temperature;BMP_pressure;BME280_temperature;BME280_humidity;BME280_pressure;Samples;Min_cycle;Max_cycle;Signal;HPM_P1;HPM_P2
2023/06/26 00:01:21;;;;;;;4.73;4.53;;;24.90;48.00;;;;;;4996884;28;20314;-74
2023/06/26 00:03:47;;;;;;;4.97;4.77;;;24.90;48.00;;;;;;5013797;28;20234;-74
2023/06/26 00:06:13;;;;;;;4.87;4.67;;;24.90;48.00;;;;;;5014816;28;20557;-74
2023/06/26 00:08:38;;;;;;;5.00;4.80;;;24.80;48.00;;;;;;5007725;28;20246;-74
2023/06/26 00:11:04;;;;;;;4.83;4.60;;;24.90;48.10;;;;;;5004020;28;20223;-74
2023/06/26 00:13:29;;;;;;;4.67;4.47;;;24.90;48.10;;;;;;5008196;28;20579;-74
2023/06/26 00:15:55;;;;;;;5.10;4.80;;;24.80;48.00;;;;;;5013812;28;20250;-73
2023/06/26 00:18:21;;;;;;;4.67;4.47;;;24.90;48.00;;;;;;5013732;28;20911;-74
2023/06/26 00:20:46;;;;;;;4.97;4.77;;;24.90;48.10;;;;;;5010939;28;20226;-73
2023/06/26 00:23:13;;;;;;;5.33;5.07;;;24.90;48.00;;;;;;5012125;28;20633;-74
2023/06/26 00:25:38;;;;;;;4.70;4.50;;;24.90;48.00;;;;;;5013736;28;20234;-74
2023/06/26 00:28:04;;;;;;;4.90;4.70;;;24.80;48.00;;;;;;5016263;28;20974;-74
2023/06/26 00:30:29;;;;;;;5.57;5.27;;;24.80;48.00;;;;;;5006497;28;20246;-75
2023/06/26 00:32:55;;;;;;;4.90;4.67;;;24.80;48.00;;;;;;5018511;28;20227;-74
2023/06/26 00:35:20;;;;;;;4.77;4.57;;;24.80;48.00;;;;;;5018941;28;20751;-74
2023/06/26 00:37:46;;;;;;;4.87;4.63;;;24.80;48.00;;;;;;5014347;28;20239;-73
2023/06/26 00:40:13;;;;;;;4.87;4.60;;;24.80;48.00;;;;;;5004969;28;20222;-74
2023/06/26 00:42:38;;;;;;;4.53;4.33;;;24.80;48.10;;;;;;5012230;28;20695;-74
2023/06/26 00:45:04;;;;;;;5.43;5.13;;;24.80;48.00;;;;;;5015780;28;20463;-74
2023/06/26 00:47:30;;;;;;;5.17;4.67;;;24.80;48.00;;;;;;5013380;28;20223;-74
2023/06/26 00:49:55;;;;;;;4.57;4.37;;;24.80;48.00;;;;;;5005011;28;20223;-74
2023/06/26 00:52:23;;;;;;;5.20;4.80;;;24.90;48.00;;;;;;5015374;28;20240;-74
2023/06/26 00:54:51;;;;;;;5.30;5.00;;;24.80;48.00;;;;;;5019847;28;20332;-74
2023/06/26 00:57:17;;;;;;;5.80;5.40;;;24.80;48.00;;;;;;5004321;28;20992;-74
2023/06/26 00:59:42;;;;;;;5.27;4.97;;;24.90;48.00;;;;;;5014389;28;20461;-74
2023/06/26 01:02:09;;;;;;;4.63;4.43;;;24.80;48.00;;;;;;5010137;28;20218;-74
2023/06/26 01:04:35;;;;;;;5.47;5.20;;;24.80;48.00;;;;;;5020478;28;20317;-74
2023/06/26 01:07:02;;;;;;;4.63;4.43;;;24.80;48.00;;;;;;5014396;28;20510;-74
2023/06/26 01:09:28;;;;;;;5.20;5.00;;;24.80;48.00;;;;;;5002400;28;20287;-74
2023/06/26 01:11:54;;;;;;;5.30;5.00;;;24.80;48.00;;;;;;5010258;28;20511;-74
2023/06/26 01:14:19;;;;;;;5.73;5.33;;;24.80;48.00;;;;;;5008564;28;20230;-74
2023/06/26 01:16:47;;;;;;;5.23;4.93;;;24.80;48.00;;;;;;5002827;28;20274;-74
2023/06/26 01:19:24;;;;;;;4.90;4.60;;;24.80;48.10;;;;;;5010041;28;20664;-73
2023/06/26 01:21:51;;;;;;;4.93;4.63;;;24.80;48.00;;;;;;4999401;28;20466;-74
2023/06/26 01:24:21;;;;;;;5.40;5.10;;;24.80;48.00;;;;;;4999809;28;20570;-73
2023/06/26 01:26:49;;;;;;;4.60;4.40;;;24.80;48.00;;;;;;5010312;28;20504;-74
2023/06/26 01:29:15;;;;;;;4.97;4.67;;;24.80;48.10;;;;;;5019056;28;21371;-74
2023/06/26 01:31:42;;;;;;;4.97;4.73;;;24.80;48.10;;;;;;5017276;28;20502;-74
2023/06/26 01:34:07;;;;;;;5.10;4.80;;;24.80;48.00;;;;;;5016161;28;20272;-73
2023/06/26 01:36:33;;;;;;;5.40;5.10;;;24.80;48.10;;;;;;4999657;28;20469;-73
2023/06/26 01:38:59;;;;;;;5.17;4.97;;;24.80;48.80;;;;;;5015712;28;26275;-74
2023/06/26 01:41:25;;;;;;;5.20;4.90;;;24.80;48.00;;;;;;5012164;28;20280;-74
2023/06/26 01:44:18;;;;;;;4.50;4.20;;;24.80;48.10;;;;;;5011321;28;20699;-73
2023/06/26 01:47:00;;;;;;;5.13;4.80;;;24.80;48.00;;;;;;5009189;28;20222;-74
2023/06/26 01:49:37;;;;;;;5.27;4.97;;;24.80;48.00;;;;;;5026777;28;20546;-73
2023/06/26 01:52:09;;;;;;;5.73;5.33;;;24.80;48.10;;;;;;5020136;28;20459;-73
2023/06/26 01:54:46;;;;;;;5.70;5.50;;;24.80;48.00;;;;;;5012543;28;20490;-74
2023/06/26 01:57:12;;;;;;;5.00;4.70;;;24.80;48.10;;;;;;5007046;28;20460;-74
2023/06/26 01:59:40;;;;;;;5.70;5.40;;;24.80;48.10;;;;;;5017776;28;20459;-74
2023/06/26 02:02:08;;;;;;;4.93;4.70;;;24.80;48.00;;;;;;5010101;28;20460;-73
2023/06/26 02:04:35;;;;;;;5.10;4.90;;;24.80;48.00;;;;;;5018272;28;20594;-74
2023/06/26 02:07:01;;;;;;;4.87;4.67;;;24.80;48.10;;;;;;5012288;28;20448;-73
2023/06/26 02:09:26;;;;;;;4.70;4.40;;;24.80;48.10;;;;;;5017038;28;20478;-73
2023/06/26 02:11:52;;;;;;;5.23;5.03;;;24.80;48.10;;;;;;5013678;28;20214;-73
2023/06/26 02:14:17;;;;;;;5.13;4.83;;;24.80;48.10;;;;;;5007941;28;20237;-73
2023/06/26 02:16:43;;;;;;;5.53;5.07;;;24.80;48.10;;;;;;5016488;28;20231;-74
2023/06/26 02:19:08;;;;;;;5.90;5.40;;;24.80;48.10;;;;;;5016734;28;20313;-74
2023/06/26 02:21:35;;;;;;;5.20;4.90;;;24.80;48.10;;;;;;5021491;28;20400;-73
2023/06/26 02:24:01;;;;;;;4.40;4.20;;;24.80;48.00;;;;;;5012255;28;20241;-74
2023/06/26 02:26:27;;;;;;;5.20;4.97;;;24.80;48.10;;;;;;5011788;28;21014;-74
2023/06/26 02:28:53;;;;;;;4.73;4.53;;;24.80;48.00;;;;;;5016211;28;21100;-74
2023/06/26 02:31:19;;;;;;;5.03;4.83;;;24.80;48.00;;;;;;5018877;28;20463;-73
2023/06/26 02:33:45;;;;;;;5.40;5.00;;;24.80;48.00;;;;;;5021022;28;20223;-73
2023/06/26 02:36:10;;;;;;;5.60;5.20;;;24.80;48.00;;;;;;4979940;28;20218;-73
2023/06/26 02:38:36;;;;;;;5.33;5.10;;;24.80;48.00;;;;;;5013893;28;20441;-73
2023/06/26 02:41:02;;;;;;;5.40;5.20;;;24.80;48.00;;;;;;5012365;28;20233;-73
2023/06/26 02:43:27;;;;;;;5.70;5.40;;;24.80;48.10;;;;;;5031271;28;20316;-74
2023/06/26 02:45:53;;;;;;;5.23;4.93;;;24.80;48.00;;;;;;4998340;28;20228;-74
2023/06/26 02:48:18;;;;;;;5.67;5.30;;;24.80;48.00;;;;;;5007872;28;20210;-73
2023/06/26 02:50:46;;;;;;;5.13;4.93;;;24.80;48.10;;;;;;5012399;28;20219;-74
2023/06/26 02:53:12;;;;;;;4.80;4.60;;;24.80;48.10;;;;;;5001866;28;20223;-74
2023/06/26 02:55:37;;;;;;;5.40;5.10;;;24.80;48.00;;;;;;5012497;28;20467;-74
2023/06/26 02:58:03;;;;;;;5.10;4.80;;;24.80;48.00;;;;;;5015265;28;20456;-74
2023/06/26 03:00:29;;;;;;;5.03;4.73;;;24.80;48.10;;;;;;5013510;28;22773;-73
2023/06/26 03:02:55;;;;;;;5.13;4.93;;;24.80;48.00;;;;;;5014921;28;20226;-74
2023/06/26 03:05:21;;;;;;;5.40;5.10;;;24.80;48.10;;;;;;5013142;28;20462;-74
2023/06/26 03:07:46;;;;;;;5.60;5.30;;;24.80;48.00;;;;;;5014608;28;20798;-74
2023/06/26 03:10:12;;;;;;;4.90;4.70;;;24.80;48.00;;;;;;5009753;28;22061;-73
2023/06/26 03:12:38;;;;;;;4.53;4.33;;;24.80;48.00;;;;;;5007735;28;20285;-74
2023/06/26 03:15:03;;;;;;;5.40;5.10;;;24.80;48.00;;;;;;5002562;28;20219;-73
2023/06/26 03:17:29;;;;;;;4.90;4.70;;;24.80;48.10;;;;;;5022869;28;20591;-74
2023/06/26 03:19:54;;;;;;;5.57;5.27;;;24.80;48.00;;;;;;5012041;28;20255;-74
2023/06/26 03:22:20;;;;;;;5.33;5.03;;;24.80;48.00;;;;;;5017756;28;20218;-74
2023/06/26 03:24:45;;;;;;;4.43;4.23;;;24.80;47.90;;;;;;5012612;28;21011;-74
2023/06/26 03:27:11;;;;;;;5.13;4.93;;;24.80;47.90;;;;;;5015910;28;20237;-74
2023/06/26 03:29:37;;;;;;;5.13;4.60;;;24.70;47.90;;;;;;5011832;28;20225;-74
2023/06/26 03:32:03;;;;;;;5.40;5.20;;;24.80;48.00;;;;;;5009994;28;20242;-74
2023/06/26 03:34:28;;;;;;;4.80;4.50;;;24.80;48.00;;;;;;5020523;28;20237;-73
2023/06/26 03:36:54;;;;;;;6.80;4.57;;;24.70;47.80;;;;;;5016210;28;20234;-73
2023/06/26 03:39:19;;;;;;;5.53;5.23;;;24.70;47.80;;;;;;5008518;28;20223;-74
2023/06/26 03:41:45;;;;;;;4.80;4.60;;;24.70;47.80;;;;;;5014058;28;20222;-74
2023/06/26 03:44:10;;;;;;;5.43;5.13;;;24.70;47.90;;;;;;5016962;28;20349;-73
2023/06/26 03:46:36;;;;;;;5.73;5.43;;;24.70;47.80;;;;;;5004038;28;20938;-73
2023/06/26 03:49:01;;;;;;;4.70;4.50;;;24.70;47.80;;;;;;5011986;28;21122;-74
2023/06/26 03:51:27;;;;;;;5.33;5.03;;;24.70;47.80;;;;;;5009545;28;20218;-74
2023/06/26 03:53:53;;;;;;;5.13;4.93;;;24.70;47.80;;;;;;5014164;28;20214;-73
2023/06/26 03:56:18;;;;;;;4.77;4.57;;;24.70;47.90;;;;;;5012384;28;20660;-73
2023/06/26 03:58:44;;;;;;;4.80;4.60;;;24.70;47.80;;;;;;5014311;28;21270;-74
2023/06/26 04:01:09;;;;;;;5.33;5.13;;;24.70;47.80;;;;;;5015272;28;20757;-74
2023/06/26 04:03:35;;;;;;;4.87;4.67;;;24.70;47.80;;;;;;5021781;28;20313;-74
2023/06/26 04:06:00;;;;;;;4.03;3.83;;;24.70;47.80;;;;;;5022186;28;20578;-74
2023/06/26 04:08:26;;;;;;;5.33;5.13;;;24.70;47.80;;;;;;5012145;28;20313;-74
2023/06/26 04:10:52;;;;;;;5.03;4.83;;;24.70;47.80;;;;;;5001891;28;20222;-74
2023/06/26 04:13:18;;;;;;;5.60;5.30;;;24.70;47.90;;;;;;5012501;28;20812;-74
2023/06/26 04:15:43;;;;;;;5.10;4.83;;;24.70;47.80;;;;;;5015807;28;20475;-73
2023/06/26 04:18:09;;;;;;;4.90;4.70;;;24.70;47.80;;;;;;5006986;28;20277;-75
2023/06/26 04:21:08;;;;;;;5.30;4.80;;;24.70;47.80;;;;;;5023290;28;20223;-73
2023/06/26 04:23:34;;;;;;;5.10;4.80;;;24.70;47.80;;;;;;5008362;28;20590;-74
2023/06/26 04:26:00;;;;;;;4.60;4.40;;;24.70;47.80;;;;;;4999248;28;20548;-73
2023/06/26 04:28:26;;;;;;;4.70;4.40;;;24.70;47.80;;;;;;5019741;28;20923;-75
2023/06/26 04:30:51;;;;;;;5.13;4.83;;;24.70;47.70;;;;;;5008972;28;20468;-75
2023/06/26 04:33:17;;;;;;;5.13;4.83;;;24.70;47.70;;;;;;5007129;28;20218;-74
2023/06/26 04:35:48;;;;;;;4.60;4.40;;;24.80;47.70;;;;;;5000402;28;20268;-74
2023/06/26 04:38:14;;;;;;;4.37;4.07;;;24.80;47.70;;;;;;5008759;28;20230;-74
2023/06/26 04:40:39;;;;;;;4.63;4.43;;;24.80;47.60;;;;;;5023374;28;20472;-75
2023/06/26 04:43:05;;;;;;;4.90;4.60;;;24.80;47.60;;;;;;5018365;28;20238;-75
2023/06/26 04:45:30;;;;;;;4.70;4.50;;;24.80;47.50;;;;;;5009995;28;20307;-75
2023/06/26 04:47:56;;;;;;;4.10;3.90;;;24.80;47.60;;;;;;5018956;28;20223;-73
2023/06/26 04:50:22;;;;;;;4.60;4.40;;;24.80;47.50;;;;;;5007709;28;20250;-76
2023/06/26 04:52:48;;;;;;;4.57;4.37;;;24.80;47.50;;;;;;5010730;28;21184;-76
2023/06/26 04:55:13;;;;;;;4.50;4.30;;;24.80;47.50;;;;;;5013936;28;20677;-78
2023/06/26 04:57:39;;;;;;;4.10;3.90;;;24.80;47.40;;;;;;5015549;28;20268;-74
2023/06/26 05:00:09;;;;;;;5.03;4.83;;;24.90;47.60;;;;;;5011873;28;20308;-73
2023/06/26 05:02:35;;;;;;;5.23;4.00;;;24.90;47.50;;;;;;5014736;28;20297;-74
2023/06/26 05:05:01;;;;;;;4.60;4.40;;;24.90;47.60;;;;;;5018315;28;20487;-77
2023/06/26 05:07:26;;;;;;;4.10;3.90;;;24.90;47.60;;;;;;5021388;28;20226;-77
2023/06/26 05:09:52;;;;;;;4.67;4.47;;;24.90;47.60;;;;;;5009095;28;20796;-77
2023/06/26 05:12:17;;;;;;;4.53;4.33;;;24.90;47.60;;;;;;5017442;28;20284;-77
2023/06/26 05:14:43;;;;;;;4.73;4.43;;;24.90;47.60;;;;;;5017905;28;20321;-77
2023/06/26 05:17:09;;;;;;;4.03;3.83;;;24.90;47.60;;;;;;5011199;28;20745;-77
2023/06/26 05:19:34;;;;;;;4.13;3.93;;;24.90;47.60;;;;;;5015854;28;20280;-77
2023/06/26 05:22:03;;;;;;;4.83;4.63;;;24.90;47.60;;;;;;5017387;28;20230;-77
2023/06/26 05:24:30;;;;;;;4.57;4.37;;;24.90;47.50;;;;;;5019454;28;20735;-77
2023/06/26 05:26:56;;;;;;;4.10;3.90;;;24.90;47.60;;;;;;5016845;28;20995;-76
2023/06/26 05:29:22;;;;;;;4.87;4.67;;;24.90;47.50;;;;;;5015388;28;20456;-77
2023/06/26 05:31:49;;;;;;;4.43;4.23;;;24.90;47.50;;;;;;5011288;28;20496;-77
2023/06/26 05:34:16;;;;;;;4.27;4.07;;;24.90;47.60;;;;;;5007419;28;20232;-79
2023/06/26 05:36:43;;;;;;;3.80;3.60;;;24.90;47.50;;;;;;5018031;28;20518;-78
2023/06/26 05:39:09;;;;;;;4.87;4.67;;;25.00;47.60;;;;;;5019141;28;20874;-78
2023/06/26 05:41:35;;;;;;;4.47;4.27;;;24.90;47.60;;;;;;5005675;28;20536;-74
2023/06/26 05:44:00;;;;;;;3.93;3.73;;;24.90;47.60;;;;;;5001106;28;20245;-77
2023/06/26 05:46:26;;;;;;;3.83;3.53;;;24.90;47.60;;;;;;5004182;28;20717;-77
2023/06/26 05:48:51;;;;;;;3.97;3.77;;;24.90;47.60;;;;;;5012090;28;20721;-78
2023/06/26 05:51:17;;;;;;;4.00;3.80;;;24.90;47.60;;;;;;5019527;28;20217;-80
2023/06/26 05:53:43;;;;;;;4.33;4.10;;;24.90;47.60;;;;;;4997880;28;20227;-78
2023/06/26 05:56:09;;;;;;;4.63;4.43;;;24.90;47.60;;;;;;5016323;28;20226;-80
2023/06/26 05:58:35;;;;;;;4.63;4.43;;;24.90;47.60;;;;;;5005407;28;20313;-80
2023/06/26 06:01:01;;;;;;;4.10;3.90;;;24.90;47.60;;;;;;5003434;28;20510;-79
2023/06/26 06:03:26;;;;;;;3.60;3.40;;;24.90;47.60;;;;;;5005805;28;20226;-76
2023/06/26 06:05:52;;;;;;;3.70;3.50;;;25.00;47.60;;;;;;4999351;28;20216;-75
2023/06/26 06:08:17;;;;;;;3.83;3.63;;;24.90;47.60;;;;;;5011771;28;20712;-75
2023/06/26 06:10:43;;;;;;;4.07;3.87;;;24.90;48.30;;;;;;5010084;28;20616;-75
2023/06/26 06:13:08;;;;;;;4.20;3.90;;;24.90;47.60;;;;;;5013496;28;20218;-75
2023/06/26 06:15:34;;;;;;;4.13;3.83;;;24.90;47.60;;;;;;5017874;28;20314;-77
2023/06/26 06:18:00;;;;;;;3.87;3.67;;;24.90;47.50;;;;;;5019668;28;20764;-77
2023/06/26 06:20:25;;;;;;;3.63;3.43;;;24.90;47.60;;;;;;5012352;28;20250;-76
2023/06/26 06:22:51;;;;;;;4.00;3.80;;;24.90;47.60;;;;;;5019476;28;20979;-75
2023/06/26 06:25:16;;;;;;;4.53;4.27;;;24.90;47.60;;;;;;5014523;28;20239;-73
2023/06/26 06:27:42;;;;;;;3.80;3.60;;;24.90;47.60;;;;;;5011521;28;20759;-75
2023/06/26 06:30:09;;;;;;;4.00;3.80;;;25.00;47.60;;;;;;5008738;28;20263;-74
2023/06/26 06:32:34;;;;;;;3.63;3.43;;;24.90;47.50;;;;;;5011837;28;20559;-74
2023/06/26 06:35:03;;;;;;;3.50;3.30;;;25.00;47.60;;;;;;5014252;28;21106;-74
2023/06/26 06:37:31;;;;;;;4.20;4.00;;;25.00;47.60;;;;;;5005391;28;20690;-74
2023/06/26 06:39:58;;;;;;;3.73;3.53;;;24.90;47.50;;;;;;5011627;28;20834;-74
2023/06/26 06:42:23;;;;;;;3.67;3.47;;;24.90;47.50;;;;;;5009363;28;20432;-76
2023/06/26 06:44:49;;;;;;;3.60;3.40;;;25.00;47.60;;;;;;5015125;28;20499;-74
2023/06/26 06:47:14;;;;;;;4.10;3.90;;;24.90;47.60;;;;;;5010459;28;20236;-74
2023/06/26 06:49:40;;;;;;;3.67;3.47;;;25.00;47.70;;;;;;5014137;28;20232;-72
2023/06/26 06:52:05;;;;;;;3.83;3.63;;;24.90;47.60;;;;;;5007319;28;20334;-75
2023/06/26 06:54:31;;;;;;;3.73;3.53;;;25.00;47.60;;;;;;5010515;28;20781;-75
2023/06/26 06:56:57;;;;;;;3.13;3.00;;;25.00;47.60;;;;;;5016051;28;20223;-74
2023/06/26 06:59:22;;;;;;;3.67;3.40;;;24.90;47.50;;;;;;5014693;28;20226;-75
2023/06/26 07:01:48;;;;;;;3.30;3.10;;;25.00;47.60;;;;;;5007913;28;20279;-75
2023/06/26 07:04:13;;;;;;;3.33;3.13;;;25.00;47.60;;;;;;5016930;28;20686;-75
2023/06/26 07:06:39;;;;;;;3.40;3.20;;;25.00;47.60;;;;;;5014225;28;20226;-76
2023/06/26 07:09:05;;;;;;;3.43;3.23;;;25.00;47.60;;;;;;5009434;28;20239;-75
2023/06/26 07:11:31;;;;;;;3.60;3.40;;;25.00;47.60;;;;;;5009075;28;20234;-74
2023/06/26 07:13:56;;;;;;;3.70;3.50;;;25.00;47.60;;;;;;5013564;28;20464;-74
2023/06/26 07:16:22;;;;;;;3.30;3.10;;;25.00;47.60;;;;;;4998015;28;20230;-75
2023/06/26 07:18:49;;;;;;;3.60;3.40;;;25.00;47.60;;;;;;5008699;28;20215;-74
2023/06/26 07:21:15;;;;;;;3.50;3.20;;;25.00;47.60;;;;;;4996588;28;20247;-74
2023/06/26 07:23:40;;;;;;;3.20;3.00;;;25.00;47.50;;;;;;5015044;28;21102;-73
2023/06/26 07:26:06;;;;;;;3.10;2.90;;;25.00;47.50;;;;;;5014469;28;20246;-74
2023/06/26 07:28:31;;;;;;;3.03;2.83;;;25.00;47.50;;;;;;5010741;28;20219;-74
2023/06/26 07:30:57;;;;;;;3.10;2.90;;;25.00;47.60;;;;;;5007584;28;20219;-74
2023/06/26 07:33:22;;;;;;;3.40;3.20;;;25.00;47.60;;;;;;5017332;28;20276;-74
2023/06/26 07:35:48;;;;;;;3.00;2.80;;;25.00;47.50;;;;;;5006873;28;20258;-74
2023/06/26 07:38:13;;;;;;;3.40;3.20;;;25.00;47.60;;;;;;5001212;28;20264;-73
2023/06/26 07:40:39;;;;;;;3.17;2.97;;;25.00;47.60;;;;;;5008178;28;20218;-75
2023/06/26 07:43:04;;;;;;;3.20;3.00;;;25.00;47.50;;;;;;5016774;28;20229;-74
2023/06/26 07:45:30;;;;;;;4.00;3.40;;;25.00;47.60;;;;;;5007925;28;20234;-74
2023/06/26 07:47:55;;;;;;;3.07;2.97;;;25.00;47.80;;;;;;4998965;28;20593;-75
2023/06/26 07:50:22;;;;;;;3.40;3.20;;;25.00;47.50;;;;;;4999539;28;21588;-75
2023/06/26 07:52:48;;;;;;;3.70;3.50;;;25.00;47.50;;;;;;5008961;28;20276;-74
2023/06/26 07:55:14;;;;;;;3.30;3.10;;;25.00;47.60;;;;;;5015821;28;20614;-74
2023/06/26 07:57:40;;;;;;;3.10;2.80;;;25.00;47.50;;;;;;5015854;28;20528;-71
2023/06/26 08:00:06;;;;;;;3.53;3.33;;;25.00;47.50;;;;;;5023640;28;20251;-74
2023/06/26 08:02:32;;;;;;;2.60;2.50;;;25.00;47.50;;;;;;5013232;28;20222;-75
2023/06/26 08:04:57;;;;;;;3.47;3.27;;;25.00;47.50;;;;;;5020878;28;20464;-74
2023/06/26 08:07:23;;;;;;;3.30;3.10;;;25.00;47.50;;;;;;5014655;28;20264;-74
2023/06/26 08:09:48;;;;;;;3.90;3.27;;;25.00;47.50;;;;;;5018712;28;20316;-75
2023/06/26 08:12:14;;;;;;;3.10;2.90;;;25.00;47.50;;;;;;5023367;28;20290;-75
2023/06/26 08:14:39;;;;;;;3.10;2.90;;;25.00;47.50;;;;;;5019503;28;20229;-75
2023/06/26 08:17:05;;;;;;;3.17;2.97;;;25.00;47.50;;;;;;5023037;28;20321;-75
2023/06/26 08:19:31;;;;;;;3.53;3.33;;;25.00;47.40;;;;;;5008162;28;20223;-75
2023/06/26 08:21:56;;;;;;;3.33;3.13;;;25.00;47.50;;;;;;5022245;28;20240;-75
2023/06/26 08:24:22;;;;;;;3.33;3.13;;;25.00;47.50;;;;;;5016647;28;20246;-75
2023/06/26 08:26:48;;;;;;;3.30;3.10;;;25.00;47.50;;;;;;5022465;28;20723;-74
2023/06/26 08:29:14;;;;;;;3.53;3.30;;;25.00;47.40;;;;;;5016776;28;20276;-74
2023/06/26 08:31:42;;;;;;;2.97;2.77;;;25.00;47.50;;;;;;5018902;28;20487;-73
2023/06/26 08:34:08;;;;;;;2.90;2.80;;;25.00;47.50;;;;;;5023819;28;20470;-75
2023/06/26 08:36:33;;;;;;;3.30;2.83;;;25.00;47.50;;;;;;5020380;28;20459;-75
2023/06/26 08:38:59;;;;;;;3.30;3.00;;;25.00;47.50;;;;;;5020169;28;20227;-75
2023/06/26 08:41:25;;;;;;;3.47;3.20;;;25.00;47.50;;;;;;5011428;28;20227;-75
2023/06/26 08:43:52;;;;;;;2.90;2.80;;;25.00;47.50;;;;;;5005128;28;20325;-75
2023/06/26 08:46:18;;;;;;;3.00;2.80;;;25.00;47.50;;;;;;5021836;28;20219;-75
2023/06/26 08:48:49;;;;;;;3.00;2.90;;;25.00;47.50;;;;;;5020490;28;20463;-77
2023/06/26 08:51:18;;;;;;;3.23;3.03;;;25.00;47.50;;;;;;5012047;28;21370;-74
2023/06/26 08:53:51;;;;;;;3.03;2.83;;;25.00;47.50;;;;;;5011815;28;20962;-74
2023/06/26 08:56:21;;;;;;;2.80;2.70;;;25.00;47.50;;;;;;5010430;28;20467;-74
2023/06/26 08:58:46;;;;;;;3.40;3.20;;;25.00;47.50;;;;;;5010242;28;20473;-74
2023/06/26 09:01:12;;;;;;;3.07;2.97;;;25.00;47.50;;;;;;5011204;28;20899;-75
2023/06/26 09:03:38;;;;;;;2.53;2.43;;;25.00;47.50;;;;;;5013810;28;21620;-75
2023/06/26 09:06:03;;;;;;;3.20;3.00;;;25.00;47.50;;;;;;5011604;28;20276;-75
2023/06/26 09:08:29;;;;;;;3.03;2.93;;;25.00;47.50;;;;;;5016410;28;20310;-75
2023/06/26 09:10:55;;;;;;;3.43;3.23;;;25.00;47.50;;;;;;5018808;28;20238;-75
2023/06/26 09:13:21;;;;;;;2.90;2.70;;;25.00;47.50;;;;;;5019417;28;20218;-74
2023/06/26 09:15:47;;;;;;;2.70;2.60;;;25.00;47.50;;;;;;5018371;28;20689;-74
2023/06/26 09:18:13;;;;;;;3.20;2.93;;;25.00;47.50;;;;;;5019653;28;20490;-74
2023/06/26 09:20:38;;;;;;;2.83;2.63;;;25.00;47.50;;;;;;5007993;28;20214;-75
2023/06/26 09:23:05;;;;;;;3.17;2.97;;;25.00;47.50;;;;;;5020904;28;20460;-74
2023/06/26 09:25:30;;;;;;;3.10;2.90;;;25.00;47.50;;;;;;5019659;28;20245;-75
2023/06/26 09:27:57;;;;;;;3.07;2.97;;;25.00;47.50;;;;;;5005775;28;20448;-75
2023/06/26 09:30:22;;;;;;;3.30;3.10;;;25.00;47.50;;;;;;5015826;28;20241;-74
2023/06/26 09:32:50;;;;;;;3.00;2.80;;;25.00;47.50;;;;;;5015498;28;21026;-75
2023/06/26 09:35:16;;;;;;;3.17;2.97;;;25.00;47.50;;;;;;5017111;28;20214;-75
2023/06/26 09:37:43;;;;;;;2.67;2.57;;;25.00;47.60;;;;;;5022232;28;20671;-75
2023/06/26 09:40:09;;;;;;;2.90;2.80;;;25.00;47.50;;;;;;5014296;28;20463;-75
2023/06/26 09:42:35;;;;;;;3.20;3.00;;;25.00;47.50;;;;;;5003088;28;20447;-74
2023/06/26 09:45:01;;;;;;;2.90;2.73;;;25.00;47.50;;;;;;5021904;28;20464;-75
2023/06/26 09:47:31;;;;;;;2.87;2.67;;;25.00;47.50;;;;;;5021750;28;20218;-74
2023/06/26 09:49:57;;;;;;;3.20;3.00;;;25.00;47.50;;;;;;5017749;28;20483;-74
2023/06/26 09:52:28;;;;;;;2.97;2.80;;;25.00;47.50;;;;;;5017695;28;20498;-74
2023/06/26 09:55:08;;;;;;;3.10;2.90;;;25.00;47.50;;;;;;5003227;28;20302;-75
2023/06/26 09:57:35;;;;;;;3.10;3.00;;;25.00;47.50;;;;;;5012723;28;20518;-75
2023/06/26 10:00:02;;;;;;;3.00;2.80;;;25.00;47.50;;;;;;5019975;28;20950;-74
2023/06/26 10:02:28;;;;;;;3.13;2.93;;;25.00;47.50;;;;;;5007798;28;20495;-75
2023/06/26 10:04:55;;;;;;;2.97;2.77;;;25.00;47.50;;;;;;5013574;28;20495;-75
2023/06/26 10:07:22;;;;;;;3.20;2.87;;;25.00;47.40;;;;;;4994220;28;20474;-75
2023/06/26 10:09:51;;;;;;;3.67;3.07;;;25.00;47.40;;;;;;5006694;28;20233;-75
2023/06/26 10:12:22;;;;;;;2.80;2.60;;;25.00;47.40;;;;;;5014275;28;20463;-75
2023/06/26 10:14:48;;;;;;;2.83;2.73;;;25.00;47.40;;;;;;5014173;28;20494;-75
2023/06/26 10:17:18;;;;;;;3.37;3.17;;;25.00;47.40;;;;;;4998954;28;20526;-74
2023/06/26 10:19:45;;;;;;;2.50;2.40;;;25.00;47.40;;;;;;4994074;28;20471;-75
2023/06/26 10:22:20;;;;;;;3.00;2.73;;;25.10;47.50;;;;;;4998691;28;21687;-74
2023/06/26 10:24:49;;;;;;;2.93;2.73;;;25.00;47.40;;;;;;5000391;28;20506;-74
2023/06/26 10:27:18;;;;;;;2.67;2.47;;;25.00;47.40;;;;;;5009972;28;20482;-74
2023/06/26 10:29:54;;;;;;;2.70;2.60;;;25.00;47.40;;;;;;5017949;28;20447;-75
2023/06/26 10:32:22;;;;;;;2.93;2.73;;;25.00;47.40;;;;;;5014729;28;20551;-75
2023/06/26 10:34:48;;;;;;;2.73;2.63;;;25.00;47.40;;;;;;5013056;28;21677;-74
2023/06/26 10:37:14;;;;;;;2.60;2.50;;;25.00;47.40;;;;;;5000353;28;20497;-75
2023/06/26 10:39:49;;;;;;;2.63;2.43;;;25.00;47.40;;;;;;4996813;28;20218;-75
2023/06/26 10:42:19;;;;;;;2.50;2.40;;;25.00;47.30;;;;;;4998189;28;20223;-75
2023/06/26 10:44:46;;;;;;;2.47;2.37;;;25.10;47.30;;;;;;4998538;28;20922;-76
2023/06/26 10:47:30;;;;;;;3.23;3.00;;;25.10;47.30;;;;;;5006162;28;20535;-76
2023/06/26 10:50:15;;;;;;;2.43;2.33;;;25.10;47.30;;;;;;5003181;28;21003;-75
2023/06/26 10:52:41;;;;;;;3.43;2.47;;;25.10;47.30;;;;;;5012409;28;20982;-75
2023/06/26 10:55:09;;;;;;;2.50;2.40;;;25.10;47.30;;;;;;5014081;28;20495;-76
2023/06/26 10:57:36;;;;;;;2.60;2.50;;;25.10;47.30;;;;;;5006743;28;20222;-76
2023/06/26 11:00:14;;;;;;;2.60;2.50;;;25.10;47.30;;;;;;5009355;28;21021;-75
2023/06/26 11:02:50;;;;;;;2.53;2.43;;;25.10;47.30;;;;;;5013637;28;20479;-72
2023/06/26 11:05:27;;;;;;;2.40;2.30;;;25.10;47.20;;;;;;4999170;28;21341;-76
2023/06/26 11:08:10;;;;;;;2.93;2.20;;;25.10;47.20;;;;;;5008931;28;21112;-75
2023/06/26 11:10:53;;;;;;;2.20;2.10;;;25.10;47.20;;;;;;5007905;28;20451;-76
2023/06/26 11:13:19;;;;;;;2.60;2.40;;;25.10;47.10;;;;;;5015405;28;20742;-75
2023/06/26 11:15:46;;;;;;;2.33;2.23;;;25.10;47.10;;;;;;5002241;28;20457;-75
2023/06/26 11:18:13;;;;;;;2.00;1.90;;;25.10;47.10;;;;;;4977537;28;20541;-75
2023/06/26 11:20:38;;;;;;;2.60;2.40;;;25.10;47.10;;;;;;4982518;28;21080;-75
2023/06/26 11:23:08;;;;;;;2.23;2.03;;;25.10;47.00;;;;;;4982865;28;20459;-75
2023/06/26 11:25:37;;;;;;;2.33;2.23;;;25.10;47.00;;;;;;4983925;28;20738;-73
2023/06/26 11:28:05;;;;;;;2.13;2.03;;;25.10;47.00;;;;;;4986382;28;20455;-73
2023/06/26 11:30:31;;;;;;;2.40;2.30;;;25.10;47.00;;;;;;4981470;28;20928;-73
2023/06/26 11:33:07;;;;;;;2.07;1.97;;;25.10;47.00;;;;;;4979572;28;20465;-73
2023/06/26 11:35:33;;;;;;;2.20;2.10;;;25.10;47.00;;;;;;4993536;28;20459;-73
2023/06/26 11:38:04;;;;;;;2.00;1.90;;;25.10;47.10;;;;;;4997131;28;20462;-73
2023/06/26 11:40:33;;;;;;;2.17;2.07;;;25.10;47.00;;;;;;4992602;28;20231;-73
2023/06/26 11:42:59;;;;;;;2.17;2.07;;;25.10;47.10;;;;;;4983692;28;20565;-73
2023/06/26 11:45:30;;;;;;;2.07;1.97;;;25.10;47.00;;;;;;4980705;28;20515;-73
2023/06/26 11:47:56;;;;;;;2.07;1.97;;;25.10;47.00;;;;;;4983359;28;20496;-73
2023/06/26 11:50:23;;;;;;;2.50;2.10;;;25.10;47.00;;;;;;5000064;28;20465;-73
2023/06/26 11:52:58;;;;;;;2.17;2.07;;;25.10;47.00;;;;;;5008390;28;20495;-73
2023/06/26 11:55:25;;;;;;;2.10;2.00;;;25.10;47.00;;;;;;5001780;28;20448;-73
2023/06/26 11:57:55;;;;;;;2.23;2.03;;;25.10;47.00;;;;;;4986079;28;20926;-73
2023/06/26 12:00:21;;;;;;;2.27;2.10;;;25.10;47.00;;;;;;4997161;28;20518;-73
2023/06/26 12:02:47;;;;;;;2.43;2.33;;;25.10;47.00;;;;;;4997389;28;21112;-73
2023/06/26 12:05:14;;;;;;;2.13;1.97;;;25.10;47.00;;;;;;4988269;28;20564;-73
2023/06/26 12:07:43;;;;;;;2.00;1.90;;;25.10;47.00;;;;;;4982120;28;20231;-74
2023/06/26 12:10:11;;;;;;;2.53;2.40;;;25.10;47.70;;;;;;4995067;28;21481;-74
2023/06/26 12:12:37;;;;;;;2.10;2.00;;;25.10;47.00;;;;;;4995622;28;20496;-73
2023/06/26 12:15:03;;;;;;;1.73;1.63;;;25.10;47.00;;;;;;4990723;28;20555;-73
2023/06/26 12:17:29;;;;;;;2.70;1.90;;;25.10;46.90;;;;;;4996492;28;20218;-73
2023/06/26 12:19:54;;;;;;;1.90;1.80;;;25.10;46.90;;;;;;4992243;28;20473;-74
2023/06/26 12:22:20;;;;;;;1.87;1.77;;;25.10;46.90;;;;;;4993048;28;20223;-73
2023/06/26 12:24:46;;;;;;;2.07;1.80;;;25.10;47.00;;;;;;4997172;28;20228;-72
2023/06/26 12:27:14;;;;;;;1.80;1.70;;;25.10;46.90;;;;;;4998093;28;20672;-72
2023/06/26 12:29:42;;;;;;;1.90;1.80;;;25.10;46.80;;;;;;5003200;28;21786;-73
2023/06/26 12:32:09;;;;;;;1.77;1.67;;;25.10;46.80;;;;;;4994292;28;21246;-73
2023/06/26 12:34:38;;;;;;;1.80;1.70;;;25.10;46.70;;;;;;5006294;28;20470;-73
2023/06/26 12:37:10;;;;;;;2.00;1.90;;;25.10;46.80;;;;;;4991197;28;20509;-73
2023/06/26 12:39:45;;;;;;;2.00;1.90;;;25.10;46.70;;;;;;4985283;28;20460;-73
2023/06/26 12:42:14;;;;;;;2.43;2.23;;;25.10;46.70;;;;;;4987636;28;20471;-72
2023/06/26 12:44:39;;;;;;;1.73;1.63;;;25.10;46.70;;;;;;4985167;28;20538;-73
2023/06/26 12:47:06;;;;;;;1.70;1.60;;;25.10;46.60;;;;;;4996945;28;20983;-73